LECOLEGR

Guest
Details From LECO - A Coruna
To LEGR - Granada
Flight Number -
Tags decoded
Created
Modified
Stats Distance 477 nm / 884 km
Max Altitude 0 ft / 0 m
Waypoints 6
Social Downloads 0
Likes 0
Share VATSIM

Download

Looking for another format? Having issues loading an existing format? Contact us
Advertisement - Login to hide

Notes

Requested: LECO BARKO ZMR HIJ OMIGO LEGR

Route

LECO BARKO ZMR HIJ OMIGO LEGR

ID Type Via Altitude Latitude Longitude Leg Dist Tot Dist Heading (true) Name
O LECO APT - 0 ft / 0 m 43.30226˚ -8.37709˚ - 0 nm - A Coruna
BARKO FIX - 0 ft / 0 m 42.20061˚ -6.94460˚ 91 nm 91 nm 136° / 137° -
ZMR NDB - 0 ft / 0 m 41.52845˚ -5.65174˚ 70 nm 161 nm 124° / 125° ZAMORA NDB
HIJ VOR - 0 ft / 0 m 38.50813˚ -5.09968˚ 183 nm 345 nm 172° / 172° HINOJOSA VOR-DME
OMIGO FIX - 0 ft / 0 m 37.22000˚ -4.90722˚ 77 nm 423 nm 173° / 173° -
O LEGR APT - 0 ft / 0 m 37.18873˚ -3.77736˚ 54 nm 477 nm 92° / 92° Granada

Altitude Profile

Advertisement - Login to hide

Weather


0- 5 10 15 20 25 30 35+ Temperature / ° C

Clouds and Precipitation
Forecast for 2017-12-13 06:00 UTC. Updated an hour ago

Ground ~20,000 ft ~40,000 ft Winds

LECO

Details ICAO LECO (LCG)
Name A Coruna
Region Spain
Timezone Europe/Madrid (UTC+1.0)
Stats Elevation 323 ft / 98 m (AMSL)
Location 43.302264° -8.377086°
Runways 1
Magnetic Variation 2.392° W

METAR

LECO 130200Z AUTO 22010KT 9999 SCT018/// BKN025/// BKN031/// 10/09 Q1021

Decode

TAF

TAF LECO 122000Z 1221/1321 21009KT 9999 BKN030 TX15/1314Z TN08/1307Z PROB40 TEMPO 1221/1303 21015G25KT PROB30 TEMPO 1221/1306 RA BKN010 TEMPO 1310/1321 21015G25KT TEMPO 1315/1321 RA BKN014

Decode

Departure Runways

ID Width Length Bearing (true) Bearing (mag) Surface Threshold Offset Overrun Length
04 148 ft / 45 m 6,371 ft / 1,942 m 30.94° 33.33° Asphalt 0 ft / 0 m 194 ft / 59 m
22 148 ft / 45 m 6,371 ft / 1,942 m 210.94° 213.33° Asphalt 0 ft / 0 m 203 ft / 62 m

LEGR

Details ICAO LEGR (GRX)
Name Granada
Region Spain
Timezone Europe/Madrid (UTC+1.0)
Stats Elevation 1,859 ft / 567 m (AMSL)
Location 37.188731° -3.777359°
Runways 1
Magnetic Variation 0.677° W

METAR

LEGR 130200Z AUTO VRB01KT 9999 NCD M01/M02 Q1026

Decode

TAF

TAF LEGR 122000Z 1221/1321 VRB02KT CAVOK TX12/1315Z TNM01/1307Z

Decode

Destination Runways

ID Width Length Bearing (true) Bearing (mag) Surface Threshold Offset Overrun Length
09 147 ft / 45 m 9,511 ft / 2,899 m 89.46° 90.14° Asphalt 0 ft / 0 m 0 ft / 0 m
27 147 ft / 45 m 9,511 ft / 2,899 m 269.48° 270.16° Asphalt 0 ft / 0 m 0 ft / 0 m

Approach Navaids

Runway Type Ident Frequency Range Bearing (true) Bearing (mag) Slope Elevation
09 Localiser GRD 109.30 MHz 18 nm / 33 km 89.49° 90.16° - 1,859 ft / 567 m (AMSL)
09 Glidescope GRD 109.30 MHz 10 nm / 19 km 89.47° 90.15° 3.00° 1,859 ft / 567 m (AMSL)

Popular Alternatives